www.cux-wetter.de
Wetterdaten: Freitag, 10.05.2013
Datum Zeit Temp. A. Feuchte A. Luftdruck Regen Wind Richtung Richtung Sonnenschein Solar Taupunkt Windchill Windben
10.05.2013 00:00 10,9 C 72 % 1010,5 hPa 0,0 l/m 0,0 km/h (0 Bft) O-SO 110 0 min 0 W/m 6,1 C 10,9 C 0,0 km/h (0 Bft)
10.05.2013 00:15 10,7 C 72 % 1010,5 hPa 0,0 l/m 0,0 km/h (0 Bft) O-SO 105 0 min 0 W/m 5,9 C 10,7 C 0,0 km/h (0 Bft)
10.05.2013 00:30 10,5 C 73 % 1010,5 hPa 0,0 l/m 0,6 km/h (0 Bft) O-SO 105 0 min 0 W/m 5,9 C 10,5 C 0,6 km/h (0 Bft)
10.05.2013 00:45 10,4 C 73 % 1010,5 hPa 0,0 l/m 0,4 km/h (0 Bft) O-SO 105 0 min 0 W/m 5,8 C 10,4 C 0,4 km/h (0 Bft)
10.05.2013 01:00 10,5 C 74 % 1010,5 hPa 0,0 l/m 3,1 km/h (1 Bft) O-SO 105 0 min 0 W/m 6,1 C 10,5 C 3,1 km/h (1 Bft)
10.05.2013 01:15 10,5 C 75 % 1009,5 hPa 0,0 l/m 7,8 km/h (2 Bft) O-SO 115 0 min 0 W/m 6,3 C 9,5 C 7,8 km/h (2 Bft)
10.05.2013 01:30 10,6 C 74 % 1009,5 hPa 0,0 l/m 1,0 km/h (0 Bft) N-NO 30 0 min 0 W/m 6,2 C 10,6 C 1,0 km/h (0 Bft)
10.05.2013 01:45 10,5 C 74 % 1009,5 hPa 0,0 l/m 3,6 km/h (1 Bft) S-SO 155 0 min 0 W/m 6,1 C 10,5 C 3,6 km/h (1 Bft)
10.05.2013 02:00 10,4 C 74 % 1009,5 hPa 0,0 l/m 5,2 km/h (1 Bft) S-SW 195 0 min 0 W/m 6,0 C 10,4 C 5,2 km/h (1 Bft)
10.05.2013 02:15 10,4 C 75 % 1009,5 hPa 0,0 l/m 6,7 km/h (2 Bft) SO 140 0 min 0 W/m 6,2 C 10,2 C 6,7 km/h (2 Bft)
10.05.2013 02:30 10,2 C 75 % 1009,5 hPa 0,0 l/m 7,4 km/h (2 Bft) SO 140 0 min 0 W/m 6,0 C 9,5 C 7,4 km/h (2 Bft)
10.05.2013 02:45 10,0 C 76 % 1009,5 hPa 0,0 l/m 6,7 km/h (2 Bft) O-SO 110 0 min 0 W/m 6,0 C 9,8 C 6,7 km/h (2 Bft)
10.05.2013 03:00 10,0 C 77 % 1009,5 hPa 0,0 l/m 5,9 km/h (2 Bft) SO 125 0 min 0 W/m 6,2 C 10,0 C 5,9 km/h (2 Bft)
10.05.2013 03:15 10,0 C 77 % 1008,5 hPa 0,0 l/m 2,8 km/h (1 Bft) SO 125 0 min 0 W/m 6,2 C 10,0 C 2,8 km/h (1 Bft)
10.05.2013 03:30 9,9 C 77 % 1008,5 hPa 0,0 l/m 5,6 km/h (2 Bft) SO 125 0 min 0 W/m 6,1 C 9,9 C 5,6 km/h (2 Bft)
10.05.2013 03:45 9,7 C 77 % 1008,5 hPa 0,0 l/m 4,8 km/h (1 Bft) SO 130 0 min 0 W/m 5,9 C 9,7 C 4,8 km/h (1 Bft)
10.05.2013 04:00 9,5 C 77 % 1008,5 hPa 0,0 l/m 3,7 km/h (1 Bft) SO 135 0 min 0 W/m 5,7 C 9,5 C 3,7 km/h (1 Bft)
10.05.2013 04:15 9,4 C 77 % 1008,5 hPa 0,0 l/m 5,4 km/h (2 Bft) S 170 0 min 0 W/m 5,6 C 9,4 C 5,4 km/h (2 Bft)
10.05.2013 04:30 9,2 C 77 % 1008,5 hPa 0,0 l/m 8,3 km/h (2 Bft) S 185 0 min 0 W/m 5,4 C 7,8 C 8,3 km/h (2 Bft)
10.05.2013 04:45 9,0 C 78 % 1008,5 hPa 0,0 l/m 9,7 km/h (2 Bft) S 180 0 min 0 W/m 5,4 C 6,7 C 9,7 km/h (2 Bft)
10.05.2013 05:00 8,8 C 78 % 1008,5 hPa 0,0 l/m 11,1 km/h (2 Bft) S 180 0 min 0 W/m 5,2 C 5,6 C 11,1 km/h (2 Bft)
10.05.2013 05:15 8,8 C 79 % 1008,5 hPa 0,0 l/m 11,9 km/h (2 Bft) S 185 0 min 0 W/m 5,4 C 5,2 C 11,9 km/h (2 Bft)
10.05.2013 05:30 8,9 C 79 % 1008,5 hPa 0,0 l/m 8,9 km/h (2 Bft) S 190 0 min 0 W/m 5,5 C 7,1 C 8,9 km/h (2 Bft)
10.05.2013 05:45 8,8 C 80 % 1008,5 hPa 0,0 l/m 10,3 km/h (2 Bft) S-SW 200 0 min 0 W/m 5,5 C 6,1 C 10,3 km/h (2 Bft)
10.05.2013 06:00 8,8 C 80 % 1008,5 hPa 0,0 l/m 12,0 km/h (2 Bft) S 185 0 min 0 W/m 5,5 C 5,1 C 12,0 km/h (2 Bft)
10.05.2013 06:15 8,8 C 80 % 1008,5 hPa 0,0 l/m 11,3 km/h (2 Bft) S-SW 210 0 min 0 W/m 5,5 C 5,5 C 11,3 km/h (2 Bft)
10.05.2013 06:30 8,8 C 80 % 1008,5 hPa 0,0 l/m 11,6 km/h (2 Bft) S 190 0 min 0 W/m 5,5 C 5,3 C 11,6 km/h (2 Bft)
10.05.2013 06:45 9,1 C 81 % 1007,5 hPa 0,0 l/m 12,7 km/h (3 Bft) S-SW 195 0 min 0 W/m 6,0 C 5,1 C 12,7 km/h (3 Bft)
10.05.2013 07:00 9,2 C 81 % 1007,5 hPa 0,0 l/m 9,8 km/h (2 Bft) S-SW 195 0 min 0 W/m 6,1 C 6,8 C 9,8 km/h (2 Bft)
10.05.2013 07:15 9,7 C 81 % 1008,5 hPa 0,0 l/m 12,4 km/h (2 Bft) SW 230 0 min 0 W/m 6,6 C 6,0 C 12,4 km/h (2 Bft)
10.05.2013 07:30 10,7 C 79 % 1008,5 hPa 0,0 l/m 16,4 km/h (3 Bft) SW 235 0 min 0 W/m 7,2 C 5,4 C 16,4 km/h (3 Bft)
10.05.2013 07:45 10,8 C 78 % 1007,5 hPa 0,0 l/m 18,2 km/h (3 Bft) SW 230 0 min 0 W/m 7,1 C 4,9 C 18,2 km/h (3 Bft)
10.05.2013 07:59 11,5 C 76 % 1007,5 hPa 0,0 l/m 19,8 km/h (3 Bft) SW 230 0 min 0 W/m 7,4 C 5,3 C 19,8 km/h (3 Bft)
10.05.2013 08:15 12,1 C 75 % 1008,5 hPa 0,0 l/m 20,6 km/h (4 Bft) W-SW 240 0 min 0 W/m 7,8 C 5,8 C 20,6 km/h (4 Bft)
10.05.2013 08:30 12,4 C 72 % 1008,5 hPa 0,0 l/m 21,7 km/h (4 Bft) SW 230 0 min 0 W/m 7,5 C 5,9 C 21,7 km/h (4 Bft)
10.05.2013 08:45 12,7 C 71 % 1007,5 hPa 0,0 l/m 22,6 km/h (4 Bft) W-SW 250 0 min 0 W/m 7,6 C 6,1 C 22,6 km/h (4 Bft)
10.05.2013 09:00 12,8 C 68 % 1007,5 hPa 0,0 l/m 24,7 km/h (4 Bft) W-SW 245 0 min 0 W/m 7,0 C 5,7 C 24,7 km/h (4 Bft)
10.05.2013 09:15 13,0 C 68 % 1007,5 hPa 0,0 l/m 27,0 km/h (5 Bft) W 260 0 min 0 W/m 7,2 C 5,5 C 27,0 km/h (5 Bft)
10.05.2013 09:30 13,1 C 65 % 1008,5 hPa 0,0 l/m 25,3 km/h (4 Bft) W-SW 240 0 min 0 W/m 6,7 C 6,0 C 25,3 km/h (4 Bft)
10.05.2013 09:45 13,4 C 66 % 1008,5 hPa 0,0 l/m 32,1 km/h (5 Bft) W-SW 245 0 min 0 W/m 7,2 C 5,1 C 32,1 km/h (5 Bft)
10.05.2013 10:00 13,8 C 67 % 1008,5 hPa 0,0 l/m 26,3 km/h (4 Bft) W-SW 255 0 min 0 W/m 7,8 C 6,7 C 26,3 km/h (4 Bft)
10.05.2013 10:15 14,0 C 65 % 1008,5 hPa 0,0 l/m 36,7 km/h (5 Bft) W 260 0 min 0 W/m 7,5 C 5,2 C 36,7 km/h (5 Bft)
10.05.2013 10:30 13,8 C 66 % 1008,5 hPa 0,0 l/m 32,5 km/h (5 Bft) W 260 0 min 0 W/m 7,6 C 5,6 C 32,5 km/h (5 Bft)
10.05.2013 10:44 13,7 C 66 % 1008,5 hPa 0,0 l/m 29,9 km/h (5 Bft) W 260 0 min 0 W/m 7,5 C 5,9 C 29,9 km/h (5 Bft)
10.05.2013 11:00 13,6 C 67 % 1008,5 hPa 0,0 l/m 43,4 km/h (6 Bft) W 275 0 min 0 W/m 7,6 C 3,8 C 43,4 km/h (6 Bft)
10.05.2013 11:15 13,2 C 73 % 1008,5 hPa 0,0 l/m 41,8 km/h (6 Bft) W 275 0 min 0 W/m 8,5 C 3,4 C 41,8 km/h (6 Bft)
10.05.2013 11:30 13,3 C 75 % 1008,5 hPa 0,3 l/m 31,5 km/h (5 Bft) W 270 0 min 0 W/m 9,0 C 5,0 C 31,5 km/h (5 Bft)
10.05.2013 11:44 14,1 C 71 % 1008,5 hPa 0,0 l/m 34,9 km/h (5 Bft) W 270 0 min 0 W/m 8,9 C 5,6 C 34,9 km/h (5 Bft)
10.05.2013 12:00 13,5 C 70 % 1008,5 hPa 0,0 l/m 33,9 km/h (5 Bft) W 280 0 min 0 W/m 8,1 C 4,9 C 33,9 km/h (5 Bft)
10.05.2013 12:15 13,5 C 71 % 1008,5 hPa 0,0 l/m 38,3 km/h (6 Bft) W 270 0 min 0 W/m 8,3 C 4,3 C 38,3 km/h (6 Bft)
10.05.2013 12:30 14,0 C 68 % 1008,5 hPa 0,0 l/m 35,8 km/h (5 Bft) W 265 0 min 0 W/m 8,2 C 5,4 C 35,8 km/h (5 Bft)
10.05.2013 12:45 15,0 C 65 % 1009,5 hPa 0,0 l/m 35,2 km/h (5 Bft) W 270 0 min 0 W/m 8,5 C 6,9 C 35,2 km/h (5 Bft)
10.05.2013 13:00 16,1 C 61 % 1009,5 hPa 0,0 l/m 39,1 km/h (6 Bft) W 275 0 min 0 W/m 8,6 C 8,0 C 39,1 km/h (6 Bft)
10.05.2013 13:14 16,3 C 58 % 1009,5 hPa 0,0 l/m 41,6 km/h (6 Bft) W 280 0 min 0 W/m 8,0 C 8,1 C 41,6 km/h (6 Bft)
10.05.2013 13:30 15,0 C 61 % 1009,5 hPa 0,0 l/m 40,9 km/h (6 Bft) W 280 0 min 0 W/m 7,5 C 6,2 C 40,9 km/h (6 Bft)
10.05.2013 13:45 15,0 C 62 % 1009,5 hPa 0,0 l/m 40,4 km/h (6 Bft) W 275 0 min 0 W/m 7,8 C 6,3 C 40,4 km/h (6 Bft)
10.05.2013 14:00 14,4 C 65 % 1009,5 hPa 0,0 l/m 30,5 km/h (5 Bft) W 270 0 min 0 W/m 7,9 C 6,8 C 30,5 km/h (5 Bft)
10.05.2013 14:15 13,9 C 69 % 1009,5 hPa 0,0 l/m 25,0 km/h (4 Bft) W-NW 295 0 min 0 W/m 8,3 C 7,1 C 25,0 km/h (4 Bft)
10.05.2013 14:30 13,7 C 71 % 1009,5 hPa 0,0 l/m 23,0 km/h (4 Bft) W-NW 295 0 min 0 W/m 8,5 C 7,3 C 23,0 km/h (4 Bft)
10.05.2013 14:45 13,7 C 69 % 1010,5 hPa 0,0 l/m 35,9 km/h (5 Bft) W 280 0 min 0 W/m 8,1 C 4,9 C 35,9 km/h (5 Bft)
10.05.2013 15:00 15,0 C 63 % 1010,5 hPa 0,0 l/m 37,9 km/h (6 Bft) W 280 0 min 0 W/m 8,0 C 6,6 C 37,9 km/h (6 Bft)
10.05.2013 15:15 15,4 C 61 % 1010,5 hPa 0,0 l/m 33,0 km/h (5 Bft) W-NW 285 0 min 0 W/m 7,9 C 7,8 C 33,0 km/h (5 Bft)
10.05.2013 15:30 15,0 C 63 % 1010,5 hPa 0,0 l/m 35,4 km/h (5 Bft) W 270 0 min 0 W/m 8,0 C 6,9 C 35,4 km/h (5 Bft)
10.05.2013 15:45 15,0 C 63 % 1010,5 hPa 0,0 l/m 35,1 km/h (5 Bft) W 275 0 min 0 W/m 8,0 C 6,9 C 35,1 km/h (5 Bft)
10.05.2013 16:00 15,3 C 64 % 1010,5 hPa 0,0 l/m 25,0 km/h (4 Bft) W-NW 295 0 min 0 W/m 8,5 C 9,0 C 25,0 km/h (4 Bft)
10.05.2013 16:15 15,9 C 63 % 1010,5 hPa 0,0 l/m 25,6 km/h (4 Bft) W-NW 295 0 min 0 W/m 8,9 C 9,7 C 25,6 km/h (4 Bft)
10.05.2013 16:30 16,2 C 62 % 1010,5 hPa 0,0 l/m 23,8 km/h (4 Bft) W-NW 300 0 min 0 W/m 8,9 C 10,5 C 23,8 km/h (4 Bft)
10.05.2013 16:45 15,7 C 62 % 1010,5 hPa 0,0 l/m 22,4 km/h (4 Bft) NW 325 0 min 0 W/m 8,4 C 10,1 C 22,4 km/h (4 Bft)
10.05.2013 17:00 15,9 C 63 % 1010,5 hPa 0,0 l/m 19,7 km/h (3 Bft) NW 315 0 min 0 W/m 8,9 C 11,0 C 19,7 km/h (3 Bft)
10.05.2013 17:15 15,0 C 64 % 1010,5 hPa 0,0 l/m 21,0 km/h (4 Bft) NW 325 0 min 0 W/m 8,2 C 9,5 C 21,0 km/h (4 Bft)
10.05.2013 17:30 14,2 C 67 % 1010,5 hPa 0,0 l/m 16,6 km/h (3 Bft) NW 320 0 min 0 W/m 8,2 C 9,7 C 16,6 km/h (3 Bft)
10.05.2013 17:45 14,0 C 68 % 1011,5 hPa 0,0 l/m 17,0 km/h (3 Bft) NW 315 0 min 0 W/m 8,2 C 9,3 C 17,0 km/h (3 Bft)
10.05.2013 18:00 13,9 C 69 % 1011,5 hPa 0,0 l/m 16,1 km/h (3 Bft) NW 315 0 min 0 W/m 8,3 C 9,5 C 16,1 km/h (3 Bft)
10.05.2013 18:15 13,6 C 70 % 1011,5 hPa 0,0 l/m 17,6 km/h (3 Bft) W 260 0 min 0 W/m 8,2 C 8,6 C 17,6 km/h (3 Bft)
10.05.2013 18:30 13,6 C 70 % 1011,5 hPa 0,0 l/m 18,3 km/h (3 Bft) W 270 0 min 0 W/m 8,2 C 8,4 C 18,3 km/h (3 Bft)
10.05.2013 18:45 13,6 C 71 % 1011,5 hPa 0,0 l/m 13,0 km/h (3 Bft) W 275 0 min 0 W/m 8,4 C 10,2 C 13,0 km/h (3 Bft)
10.05.2013 19:00 13,4 C 71 % 1011,5 hPa 0,0 l/m 12,6 km/h (3 Bft) W 280 0 min 0 W/m 8,3 C 10,2 C 12,6 km/h (3 Bft)
10.05.2013 19:15 13,4 C 71 % 1011,5 hPa 0,0 l/m 13,5 km/h (3 Bft) W 270 0 min 0 W/m 8,3 C 9,8 C 13,5 km/h (3 Bft)
10.05.2013 19:30 13,2 C 73 % 1011,5 hPa 0,0 l/m 11,5 km/h (2 Bft) W 270 0 min 0 W/m 8,5 C 10,4 C 11,5 km/h (2 Bft)
10.05.2013 19:45 13,2 C 75 % 1011,5 hPa 0,0 l/m 13,5 km/h (3 Bft) SW 225 0 min 0 W/m 8,9 C 9,6 C 13,5 km/h (3 Bft)
10.05.2013 20:00 13,1 C 76 % 1011,5 hPa 0,0 l/m 4,6 km/h (1 Bft) SW 230 0 min 0 W/m 9,0 C 13,1 C 4,6 km/h (1 Bft)
10.05.2013 20:15 13,0 C 77 % 1011,5 hPa 0,0 l/m 6,5 km/h (2 Bft) SW 230 0 min 0 W/m 9,1 C 13,0 C 6,5 km/h (2 Bft)
10.05.2013 20:30 13,0 C 77 % 1011,5 hPa 0,0 l/m 5,5 km/h (2 Bft) S-SW 195 0 min 0 W/m 9,1 C 13,0 C 5,5 km/h (2 Bft)
10.05.2013 20:45 12,8 C 78 % 1011,5 hPa 0,0 l/m 3,3 km/h (1 Bft) S-SW 195 0 min 0 W/m 9,1 C 12,8 C 3,3 km/h (1 Bft)
10.05.2013 21:00 12,7 C 78 % 1011,5 hPa 0,0 l/m 5,0 km/h (1 Bft) S-SW 195 0 min 0 W/m 9,0 C 12,7 C 5,0 km/h (1 Bft)
10.05.2013 21:15 12,6 C 79 % 1011,5 hPa 0,0 l/m 8,7 km/h (2 Bft) S 180 0 min 0 W/m 9,1 C 11,2 C 8,7 km/h (2 Bft)
10.05.2013 21:30 12,6 C 81 % 1011,5 hPa 0,0 l/m 7,2 km/h (2 Bft) S-SW 205 0 min 0 W/m 9,4 C 12,1 C 7,2 km/h (2 Bft)
10.05.2013 21:45 12,6 C 81 % 1012,5 hPa 0,0 l/m 12,9 km/h (3 Bft) W 275 0 min 0 W/m 9,4 C 9,1 C 12,9 km/h (3 Bft)
10.05.2013 22:00 12,6 C 81 % 1012,5 hPa 0,0 l/m 14,4 km/h (3 Bft) W 265 0 min 0 W/m 9,4 C 8,5 C 14,4 km/h (3 Bft)
10.05.2013 22:15 12,5 C 81 % 1012,5 hPa 0,0 l/m 21,1 km/h (4 Bft) W 270 0 min 0 W/m 9,3 C 6,2 C 21,1 km/h (4 Bft)
10.05.2013 22:30 12,4 C 81 % 1012,5 hPa 0,0 l/m 22,8 km/h (4 Bft) W 280 0 min 0 W/m 9,2 C 5,6 C 22,8 km/h (4 Bft)
10.05.2013 22:45 12,4 C 82 % 1012,5 hPa 0,0 l/m 23,0 km/h (4 Bft) W 270 0 min 0 W/m 9,4 C 5,6 C 23,0 km/h (4 Bft)
10.05.2013 23:00 12,3 C 82 % 1012,5 hPa 0,0 l/m 23,5 km/h (4 Bft) W 265 0 min 0 W/m 9,3 C 5,3 C 23,5 km/h (4 Bft)
10.05.2013 23:15 12,3 C 83 % 1012,5 hPa 0,0 l/m 24,8 km/h (4 Bft) W 270 0 min 0 W/m 9,5 C 5,0 C 24,8 km/h (4 Bft)
10.05.2013 23:30 12,2 C 83 % 1012,5 hPa 0,0 l/m 20,6 km/h (4 Bft) W 275 0 min 0 W/m 9,4 C 6,0 C 20,6 km/h (4 Bft)
10.05.2013 23:45 12,3 C 83 % 1012,5 hPa 0,0 l/m 17,4 km/h (3 Bft) W 265 0 min 0 W/m 9,5 C 7,1 C 17,4 km/h (3 Bft)
_ Min-Zeit 05:00 13:14 06:45 - 00:00 - - - - 05:00 11:15 00:00
Minimum _ 8,8 C 58 % 1007,5 hPa - 0,0 km/h (0 Bft) - - - - 5,2 C 3,4 C 0,0 km/h (0 Bft)
_ Max-Zeit 13:14 23:15 21:45 11:30 11:00 - - 00:00 00:00 23:15 20:00 11:00
Maximum _ 16,3 C 83 % 1012,5 hPa 0,3 l/m 43,4 km/h
W (6 Bft)
- - 0 min 0 W/m 9,5 C 13,1 C 43,4 km/h
W (6 Bft)
Durchschnitt _ 12,4 C 73 % 1009,8 hPa #0,3 l/m 18,7 km/h (3 Bft) W - #0 min. 0 W/m 7,6 C 7,9 C 18,7 km/h (3 Bft)
copyright by Holger Just